createdAt,value
2023-04-30T00:00:13.534Z,351.00
2023-04-30T00:01:13.567Z,350.00
2023-04-30T00:02:13.648Z,350.00
2023-04-30T00:03:13.751Z,347.00
2023-04-30T00:04:13.814Z,347.00
2023-04-30T00:05:13.750Z,344.00
2023-04-30T00:06:13.824Z,347.00
2023-04-30T00:07:13.871Z,348.00
2023-04-30T00:08:13.902Z,351.00
2023-04-30T00:09:13.938Z,351.00
2023-04-30T00:10:14.007Z,350.00
2023-04-30T00:11:14.058Z,350.00
2023-04-30T00:12:14.102Z,352.00
2023-04-30T00:13:14.166Z,352.00
2023-04-30T00:14:14.211Z,350.00
2023-04-30T00:15:14.247Z,348.00
2023-04-30T00:16:14.395Z,347.00
2023-04-30T00:17:14.329Z,347.00
2023-04-30T00:18:14.385Z,345.00
2023-04-30T00:19:14.456Z,342.00
2023-04-30T00:20:14.494Z,340.00
2023-04-30T00:21:14.570Z,341.00
2023-04-30T00:22:14.605Z,342.00
2023-04-30T00:23:14.668Z,343.00
2023-04-30T00:24:14.719Z,344.00
2023-04-30T00:25:14.788Z,345.00
2023-04-30T00:26:14.823Z,346.00
2023-04-30T00:27:14.882Z,346.00
2023-04-30T00:28:14.945Z,348.00
2023-04-30T00:29:15.004Z,350.00
2023-04-30T00:30:15.071Z,352.00
2023-04-30T00:31:15.116Z,355.00
2023-04-30T00:32:15.393Z,352.00
2023-04-30T00:33:15.272Z,351.00
2023-04-30T00:34:15.290Z,351.00
2023-04-30T00:35:15.388Z,349.00
2023-04-30T00:36:15.383Z,352.00
2023-04-30T00:37:15.445Z,350.00
2023-04-30T00:38:15.530Z,351.00
2023-04-30T00:39:15.541Z,353.00
2023-04-30T00:40:15.588Z,352.00
2023-04-30T00:41:15.647Z,351.00
2023-04-30T00:42:15.707Z,351.00
2023-04-30T00:43:15.785Z,353.00
2023-04-30T00:44:15.805Z,351.00
2023-04-30T00:45:15.860Z,353.00
2023-04-30T00:46:15.972Z,356.00
2023-04-30T00:47:16.000Z,357.00
2023-04-30T00:48:16.054Z,357.00
2023-04-30T00:49:16.106Z,356.00
2023-04-30T00:50:16.294Z,352.00
2023-04-30T00:51:16.226Z,353.00
2023-04-30T00:52:16.290Z,352.00
2023-04-30T00:53:16.353Z,351.00
2023-04-30T00:54:16.411Z,351.00
2023-04-30T00:55:16.455Z,351.00
2023-04-30T00:56:16.545Z,352.00
2023-04-30T00:57:16.590Z,356.00
2023-04-30T00:58:16.660Z,355.00
2023-04-30T00:59:16.692Z,356.00
2023-04-30T01:00:16.761Z,358.00
2023-04-30T01:01:16.837Z,357.00
2023-04-30T01:02:16.904Z,357.00
2023-04-30T01:03:17.076Z,357.00
2023-04-30T01:04:17.001Z,357.00
2023-04-30T01:05:17.059Z,357.00
2023-04-30T01:06:17.153Z,356.00
2023-04-30T01:07:17.167Z,355.00
2023-04-30T01:08:17.236Z,355.00
2023-04-30T01:09:17.304Z,355.00
2023-04-30T01:10:17.349Z,357.00
2023-04-30T01:11:17.427Z,357.00
2023-04-30T01:12:17.458Z,357.00
2023-04-30T01:13:17.527Z,354.00
2023-04-30T01:14:17.581Z,351.00
2023-04-30T01:15:17.622Z,352.00
2023-04-30T01:16:17.743Z,350.00
2023-04-30T01:17:17.734Z,348.00
2023-04-30T01:18:17.887Z,349.00
2023-04-30T01:19:17.876Z,352.00
2023-04-30T01:20:17.923Z,353.00
2023-04-30T01:21:17.988Z,354.00
2023-04-30T01:22:18.053Z,354.00
2023-04-30T01:23:18.111Z,352.00
2023-04-30T01:24:18.184Z,351.00
2023-04-30T01:25:18.319Z,352.00
2023-04-30T01:26:18.303Z,350.00
2023-04-30T01:27:18.338Z,352.00
2023-04-30T01:28:18.398Z,350.00
2023-04-30T01:29:18.489Z,351.00
2023-04-30T01:30:18.617Z,350.00
2023-04-30T01:31:18.576Z,351.00
2023-04-30T01:32:18.630Z,351.00
2023-04-30T01:33:18.670Z,351.00
2023-04-30T01:34:18.755Z,351.00
2023-04-30T01:35:18.784Z,353.00
2023-04-30T01:36:18.845Z,352.00
2023-04-30T01:37:18.890Z,351.00
2023-04-30T01:38:18.948Z,350.00
2023-04-30T01:39:19.007Z,351.00
2023-04-30T01:40:19.051Z,351.00
2023-04-30T01:41:19.105Z,351.00
2023-04-30T01:42:19.159Z,350.00
2023-04-30T01:43:19.242Z,351.00
2023-04-30T01:44:19.278Z,352.00
2023-04-30T01:45:19.324Z,353.00
2023-04-30T01:46:19.410Z,354.00
2023-04-30T01:47:19.439Z,353.00
2023-04-30T01:48:19.498Z,353.00
2023-04-30T01:49:19.595Z,353.00
2023-04-30T01:50:19.612Z,351.00
2023-04-30T01:51:19.664Z,351.00
2023-04-30T01:52:19.721Z,351.00
2023-04-30T01:53:19.777Z,353.00
2023-04-30T01:54:19.817Z,351.00
2023-04-30T01:55:19.889Z,348.00
2023-04-30T01:56:19.930Z,349.00
2023-04-30T01:57:19.997Z,351.00
2023-04-30T01:58:20.056Z,353.00
2023-04-30T01:59:20.120Z,354.00
2023-04-30T02:00:20.157Z,354.00
2023-04-30T02:01:20.235Z,355.00
2023-04-30T02:02:20.326Z,356.00
2023-04-30T02:03:20.381Z,358.00
2023-04-30T02:04:20.368Z,358.00
2023-04-30T02:05:20.439Z,355.00
2023-04-30T02:06:20.668Z,354.00
2023-04-30T02:07:20.533Z,353.00
2023-04-30T02:08:20.614Z,355.00
2023-04-30T02:09:20.674Z,353.00
2023-04-30T02:10:20.713Z,354.00
2023-04-30T02:11:20.773Z,353.00
2023-04-30T02:12:20.823Z,351.00
2023-04-30T02:13:20.868Z,351.00
2023-04-30T02:14:20.935Z,352.00
2023-04-30T02:15:20.976Z,353.00
2023-04-30T02:16:21.095Z,353.00
2023-04-30T02:17:21.086Z,353.00
2023-04-30T02:18:21.178Z,351.00
2023-04-30T02:19:21.199Z,352.00
2023-04-30T02:20:21.213Z,351.00
2023-04-30T02:21:21.290Z,351.00
2023-04-30T02:22:21.286Z,353.00
2023-04-30T02:23:21.341Z,354.00
2023-04-30T02:24:21.362Z,354.00
2023-04-30T02:25:21.407Z,357.00
2023-04-30T02:26:21.446Z,356.00
2023-04-30T02:27:21.484Z,358.00
2023-04-30T02:28:21.518Z,355.00
2023-04-30T02:29:21.557Z,355.00
2023-04-30T02:30:21.622Z,351.00
2023-04-30T02:31:21.666Z,349.00
2023-04-30T02:32:21.703Z,350.00
2023-04-30T02:33:21.736Z,348.00
2023-04-30T02:34:21.751Z,349.00
2023-04-30T02:35:21.782Z,350.00
2023-04-30T02:36:21.864Z,350.00
2023-04-30T02:37:21.914Z,349.00
2023-04-30T02:38:21.912Z,345.00
2023-04-30T02:39:21.957Z,346.00
2023-04-30T02:40:21.999Z,348.00
2023-04-30T02:41:22.054Z,352.00
2023-04-30T02:42:22.089Z,352.00
2023-04-30T02:43:22.115Z,351.00
2023-04-30T02:44:22.160Z,355.00
2023-04-30T02:45:22.176Z,357.00
2023-04-30T02:46:22.338Z,354.00
2023-04-30T02:47:22.303Z,353.00
2023-04-30T02:48:22.290Z,353.00
2023-04-30T02:49:22.338Z,356.00
2023-04-30T02:50:22.373Z,355.00
2023-04-30T02:51:22.415Z,355.00
2023-04-30T02:52:22.436Z,356.00
2023-04-30T02:53:22.445Z,354.00
2023-04-30T02:54:22.580Z,354.00
2023-04-30T02:55:22.538Z,352.00
2023-04-30T02:56:22.573Z,349.00
2023-04-30T02:57:22.610Z,348.00
2023-04-30T02:58:22.652Z,352.00
2023-04-30T02:59:22.687Z,352.00
2023-04-30T03:00:22.735Z,350.00
2023-04-30T03:01:22.799Z,349.00
2023-04-30T03:02:22.881Z,349.00
2023-04-30T03:03:22.964Z,349.00
2023-04-30T03:04:22.920Z,348.00
2023-04-30T03:05:22.981Z,352.00
2023-04-30T03:06:23.038Z,350.00
2023-04-30T03:07:23.053Z,348.00
2023-04-30T03:08:23.074Z,350.00
2023-04-30T03:09:23.116Z,350.00
2023-04-30T03:10:23.123Z,349.00
2023-04-30T03:11:23.170Z,349.00
2023-04-30T03:12:23.173Z,348.00
2023-04-30T03:13:23.218Z,350.00
2023-04-30T03:14:23.237Z,353.00
2023-04-30T03:15:23.227Z,353.00
2023-04-30T03:16:23.296Z,352.00
2023-04-30T03:17:23.348Z,352.00
2023-04-30T03:18:23.307Z,353.00
2023-04-30T03:19:23.338Z,357.00
2023-04-30T03:20:23.373Z,356.00
2023-04-30T03:21:23.370Z,356.00
2023-04-30T03:22:23.382Z,356.00
2023-04-30T03:23:23.411Z,358.00
2023-04-30T03:24:23.446Z,360.00
2023-04-30T03:25:23.466Z,357.00
2023-04-30T03:26:23.458Z,357.00
2023-04-30T03:27:23.468Z,354.00
2023-04-30T03:28:23.500Z,353.00
2023-04-30T03:29:23.538Z,353.00
2023-04-30T03:30:23.535Z,353.00
2023-04-30T03:31:23.581Z,353.00
2023-04-30T03:32:23.671Z,348.00
2023-04-30T03:33:23.631Z,347.00
2023-04-30T03:34:23.616Z,347.00
2023-04-30T03:35:23.629Z,347.00
2023-04-30T03:36:23.684Z,348.00
2023-04-30T03:37:23.690Z,349.00
2023-04-30T03:38:23.708Z,348.00
2023-04-30T03:39:23.761Z,346.00
2023-04-30T03:40:23.783Z,346.00
2023-04-30T03:41:23.791Z,344.00
2023-04-30T03:42:23.804Z,346.00
2023-04-30T03:43:23.825Z,347.00
2023-04-30T03:44:23.844Z,346.00
2023-04-30T03:45:23.866Z,346.00
2023-04-30T03:46:23.931Z,347.00
2023-04-30T03:47:23.940Z,350.00
2023-04-30T03:48:23.954Z,349.00
2023-04-30T03:49:23.977Z,350.00
2023-04-30T03:50:24.011Z,349.00
2023-04-30T03:51:24.047Z,349.00
2023-04-30T03:52:24.081Z,345.00
2023-04-30T03:53:24.099Z,346.00
2023-04-30T03:54:24.114Z,345.00
2023-04-30T03:55:24.131Z,348.00
2023-04-30T03:56:24.149Z,347.00
2023-04-30T03:57:24.166Z,350.00
2023-04-30T03:58:24.176Z,351.00
2023-04-30T03:59:24.181Z,350.00
2023-04-30T04:00:24.198Z,350.00
2023-04-30T04:01:24.217Z,347.00
2023-04-30T04:02:24.369Z,350.00
2023-04-30T04:03:24.293Z,350.00
2023-04-30T04:04:24.393Z,349.00
2023-04-30T04:05:24.360Z,349.00
2023-04-30T04:06:24.415Z,349.00
2023-04-30T04:07:24.441Z,345.00
2023-04-30T04:08:24.466Z,344.00
2023-04-30T04:09:24.523Z,346.00
2023-04-30T04:10:24.549Z,344.00
2023-04-30T04:11:24.567Z,347.00
2023-04-30T04:12:24.607Z,345.00
2023-04-30T04:13:24.623Z,349.00
2023-04-30T04:14:24.651Z,350.00
2023-04-30T04:15:24.681Z,348.00
2023-04-30T04:16:24.753Z,348.00
2023-04-30T04:17:24.760Z,349.00
2023-04-30T04:18:24.744Z,349.00
2023-04-30T04:19:24.770Z,352.00
2023-04-30T04:20:24.797Z,352.00
2023-04-30T04:21:24.846Z,349.00
2023-04-30T04:22:24.866Z,352.00
2023-04-30T04:23:24.906Z,352.00
2023-04-30T04:24:24.935Z,351.00
2023-04-30T04:25:24.973Z,351.00
2023-04-30T04:26:25.017Z,351.00
2023-04-30T04:27:25.065Z,347.00
2023-04-30T04:28:25.139Z,344.00
2023-04-30T04:29:25.169Z,344.00
2023-04-30T04:30:25.209Z,345.00
2023-04-30T04:31:25.289Z,345.00
2023-04-30T04:32:25.356Z,343.00
2023-04-30T04:33:25.373Z,344.00
2023-04-30T04:34:25.408Z,342.00
2023-04-30T04:35:25.462Z,341.00
2023-04-30T04:36:25.499Z,341.00
2023-04-30T04:37:25.528Z,345.00
2023-04-30T04:38:25.546Z,346.00
2023-04-30T04:39:25.569Z,344.00
2023-04-30T04:40:25.604Z,342.00
2023-04-30T04:41:25.678Z,343.00
2023-04-30T04:42:25.725Z,340.00
2023-04-30T04:43:25.740Z,342.00
2023-04-30T04:44:25.783Z,342.00
2023-04-30T04:45:25.827Z,341.00
2023-04-30T04:46:25.966Z,341.00
2023-04-30T04:47:25.948Z,339.00
2023-04-30T04:48:25.970Z,342.00
2023-04-30T04:49:26.024Z,345.00
2023-04-30T04:50:26.096Z,342.00
2023-04-30T04:51:26.120Z,341.00
2023-04-30T04:52:26.174Z,341.00
2023-04-30T04:53:26.218Z,341.00
2023-04-30T04:54:26.238Z,340.00
2023-04-30T04:55:26.293Z,339.00
2023-04-30T04:56:26.346Z,338.00
2023-04-30T04:57:26.365Z,334.00
2023-04-30T04:58:26.448Z,336.00
2023-04-30T04:59:26.483Z,335.00
2023-04-30T05:00:26.521Z,338.00
2023-04-30T05:01:26.587Z,339.00
2023-04-30T05:02:26.708Z,339.00
2023-04-30T05:03:26.731Z,340.00
2023-04-30T05:04:26.685Z,338.00
2023-04-30T05:05:26.741Z,338.00
2023-04-30T05:06:26.894Z,337.00
2023-04-30T05:07:26.846Z,337.00
2023-04-30T05:08:26.874Z,336.00
2023-04-30T05:09:26.950Z,336.00
2023-04-30T05:10:26.997Z,338.00
2023-04-30T05:11:27.056Z,339.00
2023-04-30T05:12:27.114Z,344.00
2023-04-30T05:13:27.162Z,344.00
2023-04-30T05:14:27.210Z,346.00
2023-04-30T05:15:27.278Z,346.00
2023-04-30T05:16:27.369Z,347.00
2023-04-30T05:17:27.441Z,348.00
2023-04-30T05:18:27.445Z,348.00
2023-04-30T05:19:27.522Z,347.00
2023-04-30T05:20:27.565Z,349.00
2023-04-30T05:21:27.620Z,351.00
2023-04-30T05:22:27.669Z,349.00
2023-04-30T05:23:27.730Z,348.00
2023-04-30T05:24:27.801Z,350.00
2023-04-30T05:25:27.848Z,350.00
2023-04-30T05:26:27.913Z,352.00
2023-04-30T05:27:27.974Z,354.00
2023-04-30T05:28:28.018Z,353.00
2023-04-30T05:29:28.074Z,350.00
2023-04-30T05:30:28.136Z,350.00
2023-04-30T05:31:28.241Z,351.00
2023-04-30T05:32:28.278Z,351.00
2023-04-30T05:33:28.319Z,350.00
2023-04-30T05:34:28.375Z,350.00
2023-04-30T05:35:28.422Z,348.00
2023-04-30T05:36:28.487Z,347.00
2023-04-30T05:37:28.571Z,347.00
2023-04-30T05:38:28.607Z,348.00
2023-04-30T05:39:28.661Z,345.00
2023-04-30T05:40:28.704Z,347.00
2023-04-30T05:41:28.791Z,344.00
2023-04-30T05:42:28.859Z,345.00
2023-04-30T05:43:28.942Z,347.00
2023-04-30T05:44:28.967Z,347.00
2023-04-30T05:45:29.092Z,347.00
2023-04-30T05:46:29.186Z,346.00
2023-04-30T05:47:29.135Z,347.00
2023-04-30T05:48:29.205Z,347.00
2023-04-30T05:49:29.262Z,349.00
2023-04-30T05:50:29.333Z,349.00
2023-04-30T05:51:29.374Z,349.00
2023-04-30T05:52:29.429Z,348.00
2023-04-30T05:53:29.477Z,345.00
2023-04-30T05:54:29.550Z,347.00
2023-04-30T05:55:29.602Z,347.00
2023-04-30T05:56:29.687Z,348.00
2023-04-30T05:57:29.719Z,345.00
2023-04-30T05:58:29.777Z,347.00
2023-04-30T05:59:29.874Z,346.00
2023-04-30T06:00:29.913Z,344.00
2023-04-30T06:01:29.979Z,344.00
2023-04-30T06:02:30.171Z,342.00
2023-04-30T06:03:30.045Z,343.00
2023-04-30T06:04:30.113Z,344.00
2023-04-30T06:05:30.260Z,342.00
2023-04-30T06:06:30.278Z,343.00
2023-04-30T06:07:30.278Z,344.00
2023-04-30T06:08:30.326Z,346.00
2023-04-30T06:09:30.394Z,346.00
2023-04-30T06:10:30.455Z,344.00
2023-04-30T06:11:30.506Z,342.00
2023-04-30T06:12:30.572Z,341.00
2023-04-30T06:13:30.617Z,338.00
2023-04-30T06:14:30.669Z,340.00
2023-04-30T06:15:30.715Z,340.00
2023-04-30T06:16:30.823Z,342.00
2023-04-30T06:17:30.884Z,341.00
2023-04-30T06:18:30.907Z,340.00
2023-04-30T06:19:30.959Z,342.00
2023-04-30T06:20:31.003Z,344.00
2023-04-30T06:21:31.076Z,342.00
2023-04-30T06:22:31.132Z,345.00
2023-04-30T06:23:31.169Z,343.00
2023-04-30T06:24:31.227Z,341.00
2023-04-30T06:25:31.269Z,342.00
2023-04-30T06:26:31.323Z,342.00
2023-04-30T06:27:31.380Z,343.00
2023-04-30T06:28:31.423Z,343.00
2023-04-30T06:29:31.490Z,344.00
2023-04-30T06:30:31.585Z,345.00
2023-04-30T06:31:31.617Z,346.00
2023-04-30T06:32:31.650Z,346.00
2023-04-30T06:33:31.664Z,346.00
2023-04-30T06:34:31.725Z,346.00
2023-04-30T06:35:31.760Z,346.00
2023-04-30T06:36:31.839Z,347.00
2023-04-30T06:37:33.471Z,348.00
2023-04-30T06:38:31.906Z,348.00
2023-04-30T06:39:31.975Z,347.00
2023-04-30T06:40:32.009Z,347.00
2023-04-30T06:41:32.064Z,347.00
2023-04-30T06:42:32.113Z,347.00
2023-04-30T06:43:32.164Z,350.00
2023-04-30T06:44:32.191Z,350.00
2023-04-30T06:45:32.270Z,351.00
2023-04-30T06:46:32.368Z,348.00
2023-04-30T06:47:32.365Z,349.00
2023-04-30T06:48:32.420Z,349.00
2023-04-30T06:49:32.475Z,348.00
2023-04-30T06:50:32.512Z,348.00
2023-04-30T06:51:32.564Z,347.00
2023-04-30T06:52:32.619Z,345.00
2023-04-30T06:53:32.659Z,346.00
2023-04-30T06:54:32.704Z,346.00
2023-04-30T06:55:32.759Z,344.00
2023-04-30T06:56:32.797Z,342.00
2023-04-30T06:57:32.841Z,345.00
2023-04-30T06:58:32.940Z,343.00
2023-04-30T06:59:32.948Z,344.00
2023-04-30T07:00:32.972Z,343.00
2023-04-30T07:01:33.036Z,345.00
2023-04-30T07:02:33.131Z,346.00
2023-04-30T07:03:33.231Z,345.00
2023-04-30T07:04:33.182Z,344.00
2023-04-30T07:05:33.222Z,342.00
2023-04-30T07:06:33.299Z,341.00
2023-04-30T07:07:33.304Z,342.00
2023-04-30T07:08:33.326Z,344.00
2023-04-30T07:09:33.391Z,344.00
2023-04-30T07:10:33.424Z,345.00
2023-04-30T07:11:33.442Z,344.00
2023-04-30T07:12:33.510Z,343.00
2023-04-30T07:13:33.539Z,344.00
2023-04-30T07:14:33.574Z,346.00
2023-04-30T07:15:33.652Z,345.00
2023-04-30T07:16:33.817Z,345.00
2023-04-30T07:17:33.694Z,345.00
2023-04-30T07:18:33.731Z,348.00
2023-04-30T07:19:33.764Z,352.00
2023-04-30T07:20:33.807Z,355.00
2023-04-30T07:21:33.821Z,354.00
2023-04-30T07:22:33.866Z,355.00
2023-04-30T07:23:33.896Z,354.00
2023-04-30T07:24:33.923Z,354.00
2023-04-30T07:25:33.959Z,354.00
2023-04-30T07:26:34.009Z,351.00
2023-04-30T07:27:34.057Z,348.00
2023-04-30T07:28:34.078Z,347.00
2023-04-30T07:29:34.095Z,349.00
2023-04-30T07:30:34.141Z,346.00
2023-04-30T07:31:34.232Z,346.00
2023-04-30T07:32:34.228Z,346.00
2023-04-30T07:33:34.236Z,347.00
2023-04-30T07:34:34.269Z,347.00
2023-04-30T07:35:34.299Z,347.00
2023-04-30T07:36:34.342Z,344.00
2023-04-30T07:37:36.044Z,343.00
2023-04-30T07:38:34.390Z,342.00
2023-04-30T07:39:34.422Z,344.00
2023-04-30T07:40:36.430Z,343.00
2023-04-30T07:41:34.506Z,344.00
2023-04-30T07:42:34.519Z,344.00
2023-04-30T07:43:34.582Z,342.00
2023-04-30T07:44:34.599Z,343.00
2023-04-30T07:45:34.626Z,342.00
2023-04-30T07:46:34.716Z,343.00
2023-04-30T07:47:34.717Z,343.00
2023-04-30T07:48:34.731Z,343.00
2023-04-30T07:49:34.763Z,343.00
2023-04-30T07:50:34.797Z,344.00
2023-04-30T07:51:34.827Z,346.00
2023-04-30T07:52:34.862Z,345.00
2023-04-30T07:53:34.894Z,343.00
2023-04-30T07:54:34.925Z,339.00
2023-04-30T07:55:34.959Z,342.00
2023-04-30T07:56:34.987Z,343.00
2023-04-30T07:57:34.997Z,344.00
2023-04-30T07:58:35.021Z,343.00
2023-04-30T07:59:35.049Z,347.00
2023-04-30T08:00:35.082Z,346.00
2023-04-30T08:01:35.146Z,344.00
2023-04-30T08:02:35.254Z,343.00
2023-04-30T08:03:35.368Z,343.00
2023-04-30T08:04:35.365Z,341.00
2023-04-30T08:05:35.213Z,343.00
2023-04-30T08:06:35.279Z,346.00
2023-04-30T08:07:35.261Z,349.00
2023-04-30T08:08:35.276Z,348.00
2023-04-30T08:09:35.343Z,347.00
2023-04-30T08:10:35.328Z,347.00
2023-04-30T08:11:35.365Z,349.00
2023-04-30T08:12:35.377Z,352.00
2023-04-30T08:13:35.401Z,348.00
2023-04-30T08:14:35.421Z,344.00
2023-04-30T08:15:35.445Z,343.00
2023-04-30T08:16:35.528Z,342.00
2023-04-30T08:17:35.557Z,342.00
2023-04-30T08:18:35.531Z,342.00
2023-04-30T08:19:35.562Z,342.00
2023-04-30T08:20:36.553Z,342.00
2023-04-30T08:21:35.607Z,344.00
2023-04-30T08:22:35.637Z,344.00
2023-04-30T08:23:35.635Z,343.00
2023-04-30T08:24:35.669Z,344.00
2023-04-30T08:25:35.708Z,344.00
2023-04-30T08:26:35.721Z,343.00
2023-04-30T08:27:35.749Z,344.00
2023-04-30T08:28:35.770Z,343.00
2023-04-30T08:29:35.797Z,343.00
2023-04-30T08:30:35.880Z,343.00
2023-04-30T08:31:35.897Z,339.00
2023-04-30T08:32:35.987Z,341.00
2023-04-30T08:33:35.871Z,342.00
2023-04-30T08:34:35.906Z,345.00
2023-04-30T08:35:35.946Z,349.00
2023-04-30T08:36:35.937Z,351.00
2023-04-30T08:37:35.987Z,352.00
2023-04-30T08:38:35.996Z,349.00
2023-04-30T08:39:36.022Z,349.00
2023-04-30T08:40:50.337Z,347.00
2023-04-30T08:41:37.048Z,346.00
2023-04-30T08:42:36.059Z,345.00
2023-04-30T08:43:36.036Z,345.00
2023-04-30T08:44:36.015Z,343.00
2023-04-30T08:45:36.003Z,341.00
2023-04-30T08:46:36.149Z,344.00
2023-04-30T08:47:36.014Z,347.00
2023-04-30T08:48:35.981Z,347.00
2023-04-30T08:49:35.991Z,346.00
2023-04-30T08:50:35.999Z,346.00
2023-04-30T08:51:35.981Z,344.00
2023-04-30T08:52:35.972Z,345.00
2023-04-30T08:53:35.951Z,344.00
2023-04-30T08:54:35.950Z,347.00
2023-04-30T08:55:35.958Z,347.00
2023-04-30T08:56:35.946Z,346.00
2023-04-30T08:57:35.939Z,343.00
2023-04-30T08:58:35.924Z,342.00
2023-04-30T08:59:35.932Z,343.00
2023-04-30T09:00:35.909Z,345.00
2023-04-30T09:01:35.947Z,346.00
2023-04-30T09:02:35.968Z,348.00
2023-04-30T09:03:36.083Z,348.00
2023-04-30T09:04:35.879Z,345.00
2023-04-30T09:05:35.869Z,344.00
2023-04-30T09:06:35.923Z,344.00
2023-04-30T09:07:35.887Z,344.00
2023-04-30T09:08:35.882Z,345.00
2023-04-30T09:09:35.908Z,345.00
2023-04-30T09:10:35.921Z,343.00
2023-04-30T09:11:35.906Z,342.00
2023-04-30T09:12:35.953Z,341.00
2023-04-30T09:13:35.928Z,341.00
2023-04-30T09:14:35.941Z,342.00
2023-04-30T09:15:35.976Z,338.00
2023-04-30T09:16:36.041Z,337.00
2023-04-30T09:17:36.040Z,339.00
2023-04-30T09:18:35.991Z,339.00
2023-04-30T09:19:36.004Z,339.00
2023-04-30T09:20:35.992Z,341.00
2023-04-30T09:21:36.004Z,341.00
2023-04-30T09:22:36.371Z,342.00
2023-04-30T09:23:36.005Z,340.00
2023-04-30T09:24:36.009Z,337.00
2023-04-30T09:25:36.028Z,335.00
2023-04-30T09:26:36.045Z,333.00
2023-04-30T09:27:36.050Z,336.00
2023-04-30T09:28:36.009Z,339.00
2023-04-30T09:29:36.036Z,341.00
2023-04-30T09:30:36.035Z,340.00
2023-04-30T09:31:36.068Z,341.00
2023-04-30T09:32:36.106Z,338.00
2023-04-30T09:33:36.026Z,340.00
2023-04-30T09:34:36.017Z,342.00
2023-04-30T09:35:36.030Z,341.00
2023-04-30T09:36:36.031Z,344.00
2023-04-30T09:37:36.073Z,343.00
2023-04-30T09:38:36.094Z,347.00
2023-04-30T09:39:36.110Z,344.00
2023-04-30T09:40:36.154Z,347.00
2023-04-30T09:41:36.207Z,349.00
2023-04-30T09:42:36.283Z,347.00
2023-04-30T09:43:36.289Z,346.00
2023-04-30T09:44:36.341Z,344.00
2023-04-30T09:45:36.391Z,343.00
2023-04-30T09:46:36.446Z,344.00
2023-04-30T09:47:36.526Z,344.00
2023-04-30T09:48:36.552Z,342.00
2023-04-30T09:49:36.591Z,342.00
2023-04-30T09:50:36.630Z,343.00
2023-04-30T09:51:36.692Z,343.00
2023-04-30T09:52:36.762Z,340.00
2023-04-30T09:53:36.822Z,339.00
2023-04-30T09:54:36.834Z,337.00
2023-04-30T09:55:36.898Z,337.00
2023-04-30T09:56:36.949Z,337.00
2023-04-30T09:57:37.020Z,336.00
2023-04-30T09:58:37.093Z,336.00
2023-04-30T09:59:37.123Z,337.00
2023-04-30T10:00:37.221Z,338.00
2023-04-30T10:01:39.623Z,341.00
2023-04-30T10:02:37.293Z,342.00
2023-04-30T10:03:37.259Z,340.00
2023-04-30T10:04:37.214Z,340.00
2023-04-30T10:05:37.224Z,340.00
2023-04-30T10:06:37.378Z,339.00
2023-04-30T10:07:37.224Z,339.00
2023-04-30T10:08:37.197Z,339.00
2023-04-30T10:09:37.189Z,340.00
2023-04-30T10:10:37.171Z,342.00
2023-04-30T10:11:37.177Z,343.00
2023-04-30T10:12:37.170Z,342.00
2023-04-30T10:13:37.169Z,341.00
2023-04-30T10:14:37.149Z,339.00
2023-04-30T10:15:37.135Z,337.00
2023-04-30T10:16:37.224Z,335.00
2023-04-30T10:17:37.196Z,337.00
2023-04-30T10:18:37.122Z,340.00
2023-04-30T10:19:37.129Z,340.00
2023-04-30T10:20:37.124Z,338.00
2023-04-30T10:21:37.107Z,336.00
2023-04-30T10:22:37.098Z,339.00
2023-04-30T10:23:37.080Z,338.00
2023-04-30T10:24:37.075Z,338.00
2023-04-30T10:25:37.081Z,336.00
2023-04-30T10:26:37.084Z,340.00
2023-04-30T10:27:37.079Z,338.00
2023-04-30T10:28:37.045Z,339.00
2023-04-30T10:29:37.055Z,339.00
2023-04-30T10:30:37.048Z,339.00
2023-04-30T10:31:37.076Z,336.00
2023-04-30T10:32:37.055Z,334.00
2023-04-30T10:33:37.018Z,335.00
2023-04-30T10:34:37.014Z,336.00
2023-04-30T10:35:37.017Z,338.00
2023-04-30T10:36:37.088Z,339.00
2023-04-30T10:37:37.080Z,339.00
2023-04-30T10:38:37.113Z,339.00
2023-04-30T10:39:37.164Z,339.00
2023-04-30T10:40:37.185Z,338.00
2023-04-30T10:41:37.207Z,340.00
2023-04-30T10:42:37.238Z,340.00
2023-04-30T10:43:37.264Z,340.00
2023-04-30T10:44:37.337Z,341.00
2023-04-30T10:45:37.386Z,340.00
2023-04-30T10:46:37.434Z,337.00
2023-04-30T10:47:37.439Z,337.00
2023-04-30T10:48:37.442Z,336.00
2023-04-30T10:49:37.483Z,338.00
2023-04-30T10:50:37.495Z,335.00
2023-04-30T10:51:37.544Z,335.00
2023-04-30T10:52:37.574Z,336.00
2023-04-30T10:53:37.616Z,336.00
2023-04-30T10:54:37.666Z,337.00
2023-04-30T10:55:37.659Z,338.00
2023-04-30T10:56:37.713Z,336.00
2023-04-30T10:57:37.742Z,336.00
2023-04-30T10:58:37.783Z,336.00
2023-04-30T10:59:37.810Z,336.00
2023-04-30T11:00:37.849Z,338.00
2023-04-30T11:01:37.926Z,339.00
2023-04-30T11:02:37.967Z,338.00
2023-04-30T11:03:37.978Z,337.00
2023-04-30T11:04:38.014Z,337.00
2023-04-30T11:05:38.042Z,337.00
2023-04-30T11:06:38.146Z,335.00
2023-04-30T11:07:38.142Z,333.00
2023-04-30T11:08:38.169Z,335.00
2023-04-30T11:09:38.202Z,336.00
2023-04-30T11:10:38.260Z,336.00
2023-04-30T11:11:38.284Z,336.00
2023-04-30T11:12:38.369Z,338.00
2023-04-30T11:13:38.371Z,338.00
2023-04-30T11:14:38.419Z,338.00
2023-04-30T11:15:38.509Z,340.00
2023-04-30T11:16:38.633Z,340.00
2023-04-30T11:17:38.608Z,339.00
2023-04-30T11:18:38.617Z,339.00
2023-04-30T11:19:38.661Z,338.00
2023-04-30T11:20:38.681Z,340.00
2023-04-30T11:21:38.732Z,340.00
2023-04-30T11:22:38.809Z,339.00
2023-04-30T11:23:41.941Z,339.00
2023-04-30T11:24:38.801Z,340.00
2023-04-30T11:25:38.793Z,338.00
2023-04-30T11:26:38.805Z,337.00
2023-04-30T11:27:38.827Z,337.00
2023-04-30T11:28:38.795Z,337.00
2023-04-30T11:29:38.817Z,336.00
2023-04-30T11:30:38.771Z,340.00
2023-04-30T11:31:38.827Z,340.00
2023-04-30T11:32:38.779Z,338.00
2023-04-30T11:33:38.754Z,336.00
2023-04-30T11:34:38.750Z,336.00
2023-04-30T11:35:38.821Z,336.00
2023-04-30T11:36:38.714Z,336.00
2023-04-30T11:37:38.715Z,335.00
2023-04-30T11:38:38.710Z,334.00
2023-04-30T11:39:38.695Z,334.00
2023-04-30T11:40:38.682Z,336.00
2023-04-30T11:41:38.692Z,338.00
2023-04-30T11:42:38.689Z,339.00
2023-04-30T11:43:38.676Z,340.00
2023-04-30T11:44:38.708Z,341.00
2023-04-30T11:45:38.646Z,340.00
2023-04-30T11:46:38.661Z,339.00
2023-04-30T11:47:38.660Z,340.00
2023-04-30T11:48:38.667Z,340.00
2023-04-30T11:49:38.629Z,340.00
2023-04-30T11:50:40.938Z,340.00
2023-04-30T11:51:38.595Z,339.00
2023-04-30T11:52:38.626Z,338.00
2023-04-30T11:53:38.695Z,338.00
2023-04-30T11:54:38.705Z,338.00
2023-04-30T11:55:38.738Z,339.00
2023-04-30T11:56:40.824Z,338.00
2023-04-30T11:57:38.947Z,339.00
2023-04-30T11:58:39.032Z,340.00
2023-04-30T11:59:38.999Z,338.00
2023-04-30T12:00:39.038Z,339.00
2023-04-30T12:01:39.112Z,340.00
2023-04-30T12:02:39.257Z,340.00
2023-04-30T12:03:39.288Z,340.00
2023-04-30T12:04:39.232Z,338.00
2023-04-30T12:05:39.225Z,341.00
2023-04-30T12:06:39.278Z,342.00
2023-04-30T12:07:39.300Z,341.00
2023-04-30T12:08:39.341Z,343.00
2023-04-30T12:09:39.376Z,343.00
2023-04-30T12:10:39.407Z,343.00
2023-04-30T12:11:39.448Z,343.00
2023-04-30T12:12:39.478Z,344.00
2023-04-30T12:13:39.531Z,344.00
2023-04-30T12:14:39.562Z,345.00
2023-04-30T12:15:39.593Z,345.00
2023-04-30T12:16:39.694Z,345.00
2023-04-30T12:17:39.733Z,346.00
2023-04-30T12:18:39.722Z,344.00
2023-04-30T12:19:39.781Z,343.00
2023-04-30T12:20:39.811Z,341.00
2023-04-30T12:21:39.854Z,339.00
2023-04-30T12:22:39.884Z,339.00
2023-04-30T12:23:39.959Z,339.00
2023-04-30T12:24:39.975Z,337.00
2023-04-30T12:25:40.018Z,337.00
2023-04-30T12:26:40.250Z,335.00
2023-04-30T12:27:40.113Z,337.00
2023-04-30T12:28:40.177Z,337.00